sensor_id;sensor_type;location;lat;lon;timestamp;temperature;humidity
5041;DHT22;2539;52.568;13.364;2024-02-26T00:01:43;3.30;99.90
5041;DHT22;2539;52.568;13.364;2024-02-26T00:04:10;3.30;99.90
5041;DHT22;2539;52.568;13.364;2024-02-26T00:06:36;3.20;99.90
5041;DHT22;2539;52.568;13.364;2024-02-26T00:09:02;3.20;99.90
5041;DHT22;2539;52.568;13.364;2024-02-26T00:11:31;3.30;99.90
5041;DHT22;2539;52.568;13.364;2024-02-26T00:13:57;3.30;99.90
5041;DHT22;2539;52.568;13.364;2024-02-26T00:16:26;3.20;99.90
5041;DHT22;2539;52.568;13.364;2024-02-26T00:18:53;3.20;99.90
5041;DHT22;2539;52.568;13.364;2024-02-26T00:21:19;3.10;99.90
5041;DHT22;2539;52.568;13.364;2024-02-26T00:23:45;3.00;99.90
5041;DHT22;2539;52.568;13.364;2024-02-26T00:26:11;2.90;99.90
5041;DHT22;2539;52.568;13.364;2024-02-26T00:28:38;2.90;99.90
5041;DHT22;2539;52.568;13.364;2024-02-26T00:31:04;2.80;99.90
5041;DHT22;2539;52.568;13.364;2024-02-26T00:33:31;2.70;99.90
5041;DHT22;2539;52.568;13.364;2024-02-26T00:35:57;2.60;99.90
5041;DHT22;2539;52.568;13.364;2024-02-26T00:38:23;2.60;99.90
5041;DHT22;2539;52.568;13.364;2024-02-26T00:40:49;2.60;99.90
5041;DHT22;2539;52.568;13.364;2024-02-26T00:43:16;2.70;99.90
5041;DHT22;2539;52.568;13.364;2024-02-26T00:45:42;2.70;99.90
5041;DHT22;2539;52.568;13.364;2024-02-26T00:48:08;2.70;99.90
5041;DHT22;2539;52.568;13.364;2024-02-26T00:50:34;2.80;99.90
5041;DHT22;2539;52.568;13.364;2024-02-26T00:53:01;2.80;99.90
5041;DHT22;2539;52.568;13.364;2024-02-26T00:55:28;2.90;99.90
5041;DHT22;2539;52.568;13.364;2024-02-26T00:57:54;2.80;99.90
5041;DHT22;2539;52.568;13.364;2024-02-26T01:00:21;2.90;99.90
5041;DHT22;2539;52.568;13.364;2024-02-26T01:02:47;2.80;99.90
5041;DHT22;2539;52.568;13.364;2024-02-26T01:05:14;2.80;99.90
5041;DHT22;2539;52.568;13.364;2024-02-26T01:07:40;2.70;99.90
5041;DHT22;2539;52.568;13.364;2024-02-26T01:10:07;2.70;99.90
5041;DHT22;2539;52.568;13.364;2024-02-26T01:12:34;2.70;99.90
5041;DHT22;2539;52.568;13.364;2024-02-26T01:15:03;2.60;99.90
5041;DHT22;2539;52.568;13.364;2024-02-26T01:17:30;2.60;99.90
5041;DHT22;2539;52.568;13.364;2024-02-26T01:19:56;2.60;99.90
5041;DHT22;2539;52.568;13.364;2024-02-26T01:22:22;2.60;99.90
5041;DHT22;2539;52.568;13.364;2024-02-26T01:24:49;2.60;99.90
5041;DHT22;2539;52.568;13.364;2024-02-26T01:27:15;2.60;99.90
5041;DHT22;2539;52.568;13.364;2024-02-26T01:29:45;2.60;99.90
5041;DHT22;2539;52.568;13.364;2024-02-26T01:32:11;2.60;99.90
5041;DHT22;2539;52.568;13.364;2024-02-26T01:34:37;2.60;99.90
5041;DHT22;2539;52.568;13.364;2024-02-26T01:37:04;2.60;99.90
5041;DHT22;2539;52.568;13.364;2024-02-26T01:39:30;2.60;99.90
5041;DHT22;2539;52.568;13.364;2024-02-26T01:41:56;2.60;99.90
5041;DHT22;2539;52.568;13.364;2024-02-26T01:44:23;2.60;99.90
5041;DHT22;2539;52.568;13.364;2024-02-26T01:46:49;2.60;99.90
5041;DHT22;2539;52.568;13.364;2024-02-26T01:49:15;2.60;99.90
5041;DHT22;2539;52.568;13.364;2024-02-26T01:51:43;2.40;99.90
5041;DHT22;2539;52.568;13.364;2024-02-26T01:54:09;2.30;99.90
5041;DHT22;2539;52.568;13.364;2024-02-26T01:56:37;2.20;99.90
5041;DHT22;2539;52.568;13.364;2024-02-26T01:59:05;2.20;99.90
5041;DHT22;2539;52.568;13.364;2024-02-26T02:01:33;2.30;99.90
5041;DHT22;2539;52.568;13.364;2024-02-26T02:04:00;2.30;99.90
5041;DHT22;2539;52.568;13.364;2024-02-26T02:06:27;2.30;99.90
5041;DHT22;2539;52.568;13.364;2024-02-26T02:08:56;2.30;99.90
5041;DHT22;2539;52.568;13.364;2024-02-26T02:11:23;2.30;99.90
5041;DHT22;2539;52.568;13.364;2024-02-26T02:13:49;2.30;99.90
5041;DHT22;2539;52.568;13.364;2024-02-26T02:16:16;2.30;99.90
5041;DHT22;2539;52.568;13.364;2024-02-26T02:18:42;2.30;99.90
5041;DHT22;2539;52.568;13.364;2024-02-26T02:21:08;2.40;99.90
5041;DHT22;2539;52.568;13.364;2024-02-26T02:23:34;2.30;99.90
5041;DHT22;2539;52.568;13.364;2024-02-26T02:26:01;2.30;99.90
5041;DHT22;2539;52.568;13.364;2024-02-26T02:28:27;2.20;99.90
5041;DHT22;2539;52.568;13.364;2024-02-26T02:30:54;2.10;99.90
5041;DHT22;2539;52.568;13.364;2024-02-26T02:33:21;2.20;99.90
5041;DHT22;2539;52.568;13.364;2024-02-26T02:35:48;2.20;99.90
5041;DHT22;2539;52.568;13.364;2024-02-26T02:38:16;2.70;99.90
5041;DHT22;2539;52.568;13.364;2024-02-26T02:40:43;2.20;99.90
5041;DHT22;2539;52.568;13.364;2024-02-26T02:43:09;2.20;99.90
5041;DHT22;2539;52.568;13.364;2024-02-26T02:45:35;2.20;99.90
5041;DHT22;2539;52.568;13.364;2024-02-26T02:48:02;2.20;99.90
5041;DHT22;2539;52.568;13.364;2024-02-26T02:50:28;2.20;99.90
5041;DHT22;2539;52.568;13.364;2024-02-26T02:52:55;2.20;99.90
5041;DHT22;2539;52.568;13.364;2024-02-26T02:55:21;2.10;99.90
5041;DHT22;2539;52.568;13.364;2024-02-26T02:57:48;2.10;99.90
5041;DHT22;2539;52.568;13.364;2024-02-26T03:00:15;2.10;99.90
5041;DHT22;2539;52.568;13.364;2024-02-26T03:02:41;2.10;99.90
5041;DHT22;2539;52.568;13.364;2024-02-26T03:05:08;2.10;99.90
5041;DHT22;2539;52.568;13.364;2024-02-26T03:07:35;2.20;99.90
5041;DHT22;2539;52.568;13.364;2024-02-26T03:10:01;2.20;99.90
5041;DHT22;2539;52.568;13.364;2024-02-26T03:12:27;2.10;99.90
5041;DHT22;2539;52.568;13.364;2024-02-26T03:14:54;2.10;99.90
5041;DHT22;2539;52.568;13.364;2024-02-26T03:17:20;2.20;99.90
5041;DHT22;2539;52.568;13.364;2024-02-26T03:19:47;2.10;99.90
5041;DHT22;2539;52.568;13.364;2024-02-26T03:22:13;2.10;99.90
5041;DHT22;2539;52.568;13.364;2024-02-26T03:24:39;2.10;99.90
5041;DHT22;2539;52.568;13.364;2024-02-26T03:27:06;2.20;99.90
5041;DHT22;2539;52.568;13.364;2024-02-26T03:29:36;2.10;99.90
5041;DHT22;2539;52.568;13.364;2024-02-26T03:32:03;2.10;99.90
5041;DHT22;2539;52.568;13.364;2024-02-26T03:34:29;2.10;99.90
5041;DHT22;2539;52.568;13.364;2024-02-26T03:36:56;2.00;99.90
5041;DHT22;2539;52.568;13.364;2024-02-26T03:39:23;2.00;99.90
5041;DHT22;2539;52.568;13.364;2024-02-26T03:41:49;2.00;99.90
5041;DHT22;2539;52.568;13.364;2024-02-26T03:44:15;2.00;99.90
5041;DHT22;2539;52.568;13.364;2024-02-26T03:46:41;2.00;99.90
5041;DHT22;2539;52.568;13.364;2024-02-26T03:49:09;2.10;99.90
5041;DHT22;2539;52.568;13.364;2024-02-26T03:51:35;2.00;99.90
5041;DHT22;2539;52.568;13.364;2024-02-26T03:54:01;2.00;99.90
5041;DHT22;2539;52.568;13.364;2024-02-26T03:56:27;2.00;99.90
5041;DHT22;2539;52.568;13.364;2024-02-26T03:58:54;1.90;99.90
5041;DHT22;2539;52.568;13.364;2024-02-26T04:01:20;1.90;99.90
5041;DHT22;2539;52.568;13.364;2024-02-26T04:03:46;1.90;99.90
5041;DHT22;2539;52.568;13.364;2024-02-26T04:06:13;1.90;99.90
5041;DHT22;2539;52.568;13.364;2024-02-26T04:09:02;1.90;99.90
5041;DHT22;2539;52.568;13.364;2024-02-26T04:11:47;1.90;99.90
5041;DHT22;2539;52.568;13.364;2024-02-26T04:14:31;1.80;99.90
5041;DHT22;2539;52.568;13.364;2024-02-26T04:17:15;1.80;99.90
5041;DHT22;2539;52.568;13.364;2024-02-26T04:19:59;1.80;99.90
5041;DHT22;2539;52.568;13.364;2024-02-26T04:22:44;1.80;99.90
5041;DHT22;2539;52.568;13.364;2024-02-26T04:25:10;1.80;99.90
5041;DHT22;2539;52.568;13.364;2024-02-26T04:27:37;1.90;99.90
5041;DHT22;2539;52.568;13.364;2024-02-26T04:30:05;1.80;99.90
5041;DHT22;2539;52.568;13.364;2024-02-26T04:32:32;1.80;99.90
5041;DHT22;2539;52.568;13.364;2024-02-26T04:34:59;1.80;99.90
5041;DHT22;2539;52.568;13.364;2024-02-26T04:37:25;1.80;99.90
5041;DHT22;2539;52.568;13.364;2024-02-26T04:40:01;1.80;99.90
5041;DHT22;2539;52.568;13.364;2024-02-26T04:42:27;1.90;99.90
5041;DHT22;2539;52.568;13.364;2024-02-26T04:44:56;1.90;99.90
5041;DHT22;2539;52.568;13.364;2024-02-26T04:47:23;1.90;99.90
5041;DHT22;2539;52.568;13.364;2024-02-26T04:49:50;1.90;99.90
5041;DHT22;2539;52.568;13.364;2024-02-26T04:52:16;1.80;99.90
5041;DHT22;2539;52.568;13.364;2024-02-26T04:55:00;1.70;99.90
5041;DHT22;2539;52.568;13.364;2024-02-26T04:57:44;1.70;99.90
5041;DHT22;2539;52.568;13.364;2024-02-26T05:00:28;1.70;99.90
5041;DHT22;2539;52.568;13.364;2024-02-26T05:02:55;1.60;99.90
5041;DHT22;2539;52.568;13.364;2024-02-26T05:05:21;1.60;99.90
5041;DHT22;2539;52.568;13.364;2024-02-26T05:07:47;1.70;99.90
5041;DHT22;2539;52.568;13.364;2024-02-26T05:10:13;1.60;99.90
5041;DHT22;2539;52.568;13.364;2024-02-26T05:12:40;3.20;99.90
5041;DHT22;2539;52.568;13.364;2024-02-26T05:15:09;1.70;99.90
5041;DHT22;2539;52.568;13.364;2024-02-26T05:17:35;1.70;99.90
5041;DHT22;2539;52.568;13.364;2024-02-26T05:20:01;1.60;99.90
5041;DHT22;2539;52.568;13.364;2024-02-26T05:22:26;1.70;99.90
5041;DHT22;2539;52.568;13.364;2024-02-26T05:24:52;1.70;99.90
5041;DHT22;2539;52.568;13.364;2024-02-26T05:27:18;1.70;99.90
5041;DHT22;2539;52.568;13.364;2024-02-26T05:29:45;1.70;99.90
5041;DHT22;2539;52.568;13.364;2024-02-26T05:32:11;1.60;99.90
5041;DHT22;2539;52.568;13.364;2024-02-26T05:34:57;1.60;99.90
5041;DHT22;2539;52.568;13.364;2024-02-26T05:37:23;1.70;99.90
5041;DHT22;2539;52.568;13.364;2024-02-26T05:39:49;1.60;99.90
5041;DHT22;2539;52.568;13.364;2024-02-26T05:42:15;1.60;99.90
5041;DHT22;2539;52.568;13.364;2024-02-26T05:44:42;1.70;99.90
5041;DHT22;2539;52.568;13.364;2024-02-26T05:47:08;1.70;99.90
5041;DHT22;2539;52.568;13.364;2024-02-26T05:49:34;1.70;99.90
5041;DHT22;2539;52.568;13.364;2024-02-26T05:52:00;1.60;99.90
5041;DHT22;2539;52.568;13.364;2024-02-26T05:54:27;1.60;99.90
5041;DHT22;2539;52.568;13.364;2024-02-26T05:56:53;1.50;99.90
5041;DHT22;2539;52.568;13.364;2024-02-26T05:59:19;1.40;99.90
5041;DHT22;2539;52.568;13.364;2024-02-26T06:01:46;1.40;99.90
5041;DHT22;2539;52.568;13.364;2024-02-26T06:04:12;1.40;99.90
5041;DHT22;2539;52.568;13.364;2024-02-26T06:06:38;1.40;99.90
5041;DHT22;2539;52.568;13.364;2024-02-26T06:09:04;1.40;99.90
5041;DHT22;2539;52.568;13.364;2024-02-26T06:11:31;1.40;99.90
5041;DHT22;2539;52.568;13.364;2024-02-26T06:13:58;1.50;99.90
5041;DHT22;2539;52.568;13.364;2024-02-26T06:16:24;1.50;99.90
5041;DHT22;2539;52.568;13.364;2024-02-26T06:18:50;1.50;99.90
5041;DHT22;2539;52.568;13.364;2024-02-26T06:21:16;1.40;99.90
5041;DHT22;2539;52.568;13.364;2024-02-26T06:23:43;1.40;99.90
5041;DHT22;2539;52.568;13.364;2024-02-26T06:26:09;1.40;99.90
5041;DHT22;2539;52.568;13.364;2024-02-26T06:28:36;1.50;99.90
5041;DHT22;2539;52.568;13.364;2024-02-26T06:31:06;1.40;99.90
5041;DHT22;2539;52.568;13.364;2024-02-26T06:33:32;1.50;99.90
5041;DHT22;2539;52.568;13.364;2024-02-26T06:36:16;1.50;99.90
5041;DHT22;2539;52.568;13.364;2024-02-26T06:38:43;1.60;99.90
5041;DHT22;2539;52.568;13.364;2024-02-26T06:41:09;1.70;99.90
5041;DHT22;2539;52.568;13.364;2024-02-26T06:43:35;1.80;99.90
5041;DHT22;2539;52.568;13.364;2024-02-26T06:46:02;1.90;99.90
5041;DHT22;2539;52.568;13.364;2024-02-26T06:48:28;1.90;99.90
5041;DHT22;2539;52.568;13.364;2024-02-26T06:50:54;2.00;99.90
5041;DHT22;2539;52.568;13.364;2024-02-26T06:53:20;2.10;99.90
5041;DHT22;2539;52.568;13.364;2024-02-26T06:55:46;2.20;99.90
5041;DHT22;2539;52.568;13.364;2024-02-26T06:58:13;2.30;99.90
5041;DHT22;2539;52.568;13.364;2024-02-26T07:00:38;2.40;99.90
5041;DHT22;2539;52.568;13.364;2024-02-26T07:03:04;2.50;99.90
5041;DHT22;2539;52.568;13.364;2024-02-26T07:05:30;2.60;99.90
5041;DHT22;2539;52.568;13.364;2024-02-26T07:07:57;2.80;99.90
5041;DHT22;2539;52.568;13.364;2024-02-26T07:10:23;2.90;99.90
5041;DHT22;2539;52.568;13.364;2024-02-26T07:12:49;3.00;99.90
5041;DHT22;2539;52.568;13.364;2024-02-26T07:15:15;3.10;99.90
5041;DHT22;2539;52.568;13.364;2024-02-26T07:17:42;3.20;99.90
5041;DHT22;2539;52.568;13.364;2024-02-26T07:20:12;3.20;99.90
5041;DHT22;2539;52.568;13.364;2024-02-26T07:22:38;3.20;99.90
5041;DHT22;2539;52.568;13.364;2024-02-26T07:25:04;3.40;99.90
5041;DHT22;2539;52.568;13.364;2024-02-26T07:27:29;3.80;99.90
5041;DHT22;2539;52.568;13.364;2024-02-26T07:29:56;3.90;99.90
5041;DHT22;2539;52.568;13.364;2024-02-26T07:32:22;3.90;99.90
5041;DHT22;2539;52.568;13.364;2024-02-26T07:34:49;3.90;99.90
5041;DHT22;2539;52.568;13.364;2024-02-26T07:37:16;3.90;99.90
5041;DHT22;2539;52.568;13.364;2024-02-26T07:39:42;4.00;99.90
5041;DHT22;2539;52.568;13.364;2024-02-26T07:42:08;4.00;99.90
5041;DHT22;2539;52.568;13.364;2024-02-26T07:44:34;4.10;99.90
5041;DHT22;2539;52.568;13.364;2024-02-26T07:47:01;4.10;99.90
5041;DHT22;2539;52.568;13.364;2024-02-26T07:49:27;4.10;99.90
5041;DHT22;2539;52.568;13.364;2024-02-26T07:51:53;4.10;99.90
5041;DHT22;2539;52.568;13.364;2024-02-26T07:54:20;4.30;99.90
5041;DHT22;2539;52.568;13.364;2024-02-26T07:56:46;4.30;99.90
5041;DHT22;2539;52.568;13.364;2024-02-26T07:59:29;4.30;99.90
5041;DHT22;2539;52.568;13.364;2024-02-26T08:01:55;4.50;99.90
5041;DHT22;2539;52.568;13.364;2024-02-26T08:04:21;4.50;99.90
5041;DHT22;2539;52.568;13.364;2024-02-26T08:06:46;4.60;99.90
5041;DHT22;2539;52.568;13.364;2024-02-26T08:09:31;4.60;99.90
5041;DHT22;2539;52.568;13.364;2024-02-26T08:12:15;4.80;99.90
5041;DHT22;2539;52.568;13.364;2024-02-26T08:14:42;4.90;99.90
5041;DHT22;2539;52.568;13.364;2024-02-26T08:17:10;5.00;99.90
5041;DHT22;2539;52.568;13.364;2024-02-26T08:19:36;5.20;99.90
5041;DHT22;2539;52.568;13.364;2024-02-26T08:22:20;5.40;99.90
5041;DHT22;2539;52.568;13.364;2024-02-26T08:24:46;5.50;99.90
5041;DHT22;2539;52.568;13.364;2024-02-26T08:27:13;5.60;99.90
5041;DHT22;2539;52.568;13.364;2024-02-26T08:29:39;5.70;99.90
5041;DHT22;2539;52.568;13.364;2024-02-26T08:32:06;5.70;99.90
5041;DHT22;2539;52.568;13.364;2024-02-26T08:34:33;5.80;99.90
5041;DHT22;2539;52.568;13.364;2024-02-26T08:36:59;5.80;99.90
5041;DHT22;2539;52.568;13.364;2024-02-26T08:39:25;5.90;99.90
5041;DHT22;2539;52.568;13.364;2024-02-26T08:41:51;5.90;99.90
5041;DHT22;2539;52.568;13.364;2024-02-26T08:44:17;5.90;99.90
5041;DHT22;2539;52.568;13.364;2024-02-26T08:46:43;6.10;99.90
5041;DHT22;2539;52.568;13.364;2024-02-26T08:49:08;6.10;99.90
5041;DHT22;2539;52.568;13.364;2024-02-26T08:51:35;6.00;99.90
5041;DHT22;2539;52.568;13.364;2024-02-26T08:54:01;6.10;99.90
5041;DHT22;2539;52.568;13.364;2024-02-26T08:56:27;6.20;99.90
5041;DHT22;2539;52.568;13.364;2024-02-26T08:58:54;6.30;99.90
5041;DHT22;2539;52.568;13.364;2024-02-26T09:01:22;6.40;99.90
5041;DHT22;2539;52.568;13.364;2024-02-26T09:03:49;6.40;99.90
5041;DHT22;2539;52.568;13.364;2024-02-26T09:06:16;6.60;99.90
5041;DHT22;2539;52.568;13.364;2024-02-26T09:08:42;6.80;99.90
5041;DHT22;2539;52.568;13.364;2024-02-26T09:11:08;6.90;99.90
5041;DHT22;2539;52.568;13.364;2024-02-26T09:13:36;7.00;99.90
5041;DHT22;2539;52.568;13.364;2024-02-26T09:16:03;7.30;99.90
5041;DHT22;2539;52.568;13.364;2024-02-26T09:18:29;7.40;99.90
5041;DHT22;2539;52.568;13.364;2024-02-26T09:20:55;7.50;99.90
5041;DHT22;2539;52.568;13.364;2024-02-26T09:23:21;7.70;99.90
5041;DHT22;2539;52.568;13.364;2024-02-26T09:25:48;7.70;99.90
5041;DHT22;2539;52.568;13.364;2024-02-26T09:28:14;7.70;99.90
5041;DHT22;2539;52.568;13.364;2024-02-26T09:30:46;7.90;99.90
5041;DHT22;2539;52.568;13.364;2024-02-26T09:33:15;7.90;99.90
5041;DHT22;2539;52.568;13.364;2024-02-26T09:35:41;8.10;99.90
5041;DHT22;2539;52.568;13.364;2024-02-26T09:38:07;8.10;99.90
5041;DHT22;2539;52.568;13.364;2024-02-26T09:40:34;8.00;99.90
5041;DHT22;2539;52.568;13.364;2024-02-26T09:43:01;8.00;99.90
5041;DHT22;2539;52.568;13.364;2024-02-26T09:45:30;8.10;99.90
5041;DHT22;2539;52.568;13.364;2024-02-26T09:47:58;8.10;99.90
5041;DHT22;2539;52.568;13.364;2024-02-26T09:50:24;8.20;99.90
5041;DHT22;2539;52.568;13.364;2024-02-26T09:52:51;8.30;99.90
5041;DHT22;2539;52.568;13.364;2024-02-26T09:55:17;8.20;99.90
5041;DHT22;2539;52.568;13.364;2024-02-26T09:57:46;8.10;99.90
5041;DHT22;2539;52.568;13.364;2024-02-26T10:00:17;8.00;99.90
5041;DHT22;2539;52.568;13.364;2024-02-26T10:02:48;8.00;99.90
5041;DHT22;2539;52.568;13.364;2024-02-26T10:05:17;8.10;99.90
5041;DHT22;2539;52.568;13.364;2024-02-26T10:07:45;8.10;99.90
5041;DHT22;2539;52.568;13.364;2024-02-26T10:10:13;8.20;99.90
5041;DHT22;2539;52.568;13.364;2024-02-26T10:12:40;8.50;99.90
5041;DHT22;2539;52.568;13.364;2024-02-26T10:15:06;8.40;99.90
5041;DHT22;2539;52.568;13.364;2024-02-26T10:17:51;8.50;99.90
5041;DHT22;2539;52.568;13.364;2024-02-26T10:20:18;8.60;99.90
5041;DHT22;2539;52.568;13.364;2024-02-26T10:22:47;8.70;99.90
5041;DHT22;2539;52.568;13.364;2024-02-26T10:25:14;8.80;99.90
5041;DHT22;2539;52.568;13.364;2024-02-26T10:27:41;9.00;99.90
5041;DHT22;2539;52.568;13.364;2024-02-26T10:30:21;9.10;99.90
5041;DHT22;2539;52.568;13.364;2024-02-26T10:32:49;9.30;99.90
5041;DHT22;2539;52.568;13.364;2024-02-26T10:35:16;9.40;99.90
5041;DHT22;2539;52.568;13.364;2024-02-26T10:37:44;9.40;99.90
5041;DHT22;2539;52.568;13.364;2024-02-26T10:40:11;9.50;99.90
5041;DHT22;2539;52.568;13.364;2024-02-26T10:42:38;9.60;99.90
5041;DHT22;2539;52.568;13.364;2024-02-26T10:45:07;9.80;99.90
5041;DHT22;2539;52.568;13.364;2024-02-26T10:47:36;10.00;99.90
5041;DHT22;2539;52.568;13.364;2024-02-26T10:50:04;10.10;99.90
5041;DHT22;2539;52.568;13.364;2024-02-26T10:52:32;10.20;99.90
5041;DHT22;2539;52.568;13.364;2024-02-26T10:55:03;10.20;99.90
5041;DHT22;2539;52.568;13.364;2024-02-26T10:57:42;10.30;99.90
5041;DHT22;2539;52.568;13.364;2024-02-26T11:00:14;10.30;99.90
5041;DHT22;2539;52.568;13.364;2024-02-26T11:02:41;10.30;99.90
5041;DHT22;2539;52.568;13.364;2024-02-26T11:05:11;10.30;99.90
5041;DHT22;2539;52.568;13.364;2024-02-26T11:07:38;10.30;99.90
5041;DHT22;2539;52.568;13.364;2024-02-26T11:10:06;10.30;99.90
5041;DHT22;2539;52.568;13.364;2024-02-26T11:12:34;10.40;99.90
5041;DHT22;2539;52.568;13.364;2024-02-26T11:15:04;10.40;99.90
5041;DHT22;2539;52.568;13.364;2024-02-26T11:17:31;10.60;99.90
5041;DHT22;2539;52.568;13.364;2024-02-26T11:20:00;10.50;99.90
5041;DHT22;2539;52.568;13.364;2024-02-26T11:22:28;10.40;99.90
5041;DHT22;2539;52.568;13.364;2024-02-26T11:24:56;10.40;99.90
5041;DHT22;2539;52.568;13.364;2024-02-26T11:27:32;10.40;99.90
5041;DHT22;2539;52.568;13.364;2024-02-26T11:30:02;10.40;99.90
5041;DHT22;2539;52.568;13.364;2024-02-26T11:32:31;10.50;99.90
5041;DHT22;2539;52.568;13.364;2024-02-26T11:34:58;10.60;99.90
5041;DHT22;2539;52.568;13.364;2024-02-26T11:37:24;10.50;99.90
5041;DHT22;2539;52.568;13.364;2024-02-26T11:39:51;10.50;99.90
5041;DHT22;2539;52.568;13.364;2024-02-26T11:42:23;10.60;99.90
5041;DHT22;2539;52.568;13.364;2024-02-26T11:44:49;10.70;99.90
5041;DHT22;2539;52.568;13.364;2024-02-26T11:47:21;10.70;99.90
5041;DHT22;2539;52.568;13.364;2024-02-26T11:49:48;10.70;99.90
5041;DHT22;2539;52.568;13.364;2024-02-26T11:52:15;10.70;99.90
5041;DHT22;2539;52.568;13.364;2024-02-26T11:54:49;10.50;99.90
5041;DHT22;2539;52.568;13.364;2024-02-26T11:59:47;11.00;99.90
5041;DHT22;2539;52.568;13.364;2024-02-26T12:05:16;11.20;99.90
5041;DHT22;2539;52.568;13.364;2024-02-26T12:07:47;11.30;99.90
5041;DHT22;2539;52.568;13.364;2024-02-26T12:10:27;11.40;99.90
5041;DHT22;2539;52.568;13.364;2024-02-26T12:12:58;11.50;99.90
5041;DHT22;2539;52.568;13.364;2024-02-26T12:15:30;11.40;99.90
5041;DHT22;2539;52.568;13.364;2024-02-26T12:17:57;11.40;99.90
5041;DHT22;2539;52.568;13.364;2024-02-26T12:20:24;11.40;99.90
5041;DHT22;2539;52.568;13.364;2024-02-26T12:22:52;11.40;99.90
5041;DHT22;2539;52.568;13.364;2024-02-26T12:25:29;11.40;99.90
5041;DHT22;2539;52.568;13.364;2024-02-26T12:27:55;11.40;99.90
5041;DHT22;2539;52.568;13.364;2024-02-26T12:30:22;11.50;99.90
5041;DHT22;2539;52.568;13.364;2024-02-26T12:32:50;11.70;99.90
5041;DHT22;2539;52.568;13.364;2024-02-26T12:35:17;11.70;99.90
5041;DHT22;2539;52.568;13.364;2024-02-26T12:37:43;11.80;99.90
5041;DHT22;2539;52.568;13.364;2024-02-26T12:40:10;11.90;99.90
5041;DHT22;2539;52.568;13.364;2024-02-26T12:42:38;12.00;99.90
5041;DHT22;2539;52.568;13.364;2024-02-26T12:45:10;12.10;99.90
5041;DHT22;2539;52.568;13.364;2024-02-26T12:47:44;12.30;99.90
5041;DHT22;2539;52.568;13.364;2024-02-26T12:50:12;12.20;99.90
5041;DHT22;2539;52.568;13.364;2024-02-26T12:52:41;12.10;99.90
5041;DHT22;2539;52.568;13.364;2024-02-26T12:55:09;12.00;99.90
5041;DHT22;2539;52.568;13.364;2024-02-26T12:57:38;12.00;99.90
5041;DHT22;2539;52.568;13.364;2024-02-26T13:00:05;12.00;99.90
5041;DHT22;2539;52.568;13.364;2024-02-26T13:02:36;12.10;99.90
5041;DHT22;2539;52.568;13.364;2024-02-26T13:05:05;12.00;99.90
5041;DHT22;2539;52.568;13.364;2024-02-26T13:07:32;11.90;99.90
5041;DHT22;2539;52.568;13.364;2024-02-26T13:10:00;11.80;99.90
5041;DHT22;2539;52.568;13.364;2024-02-26T13:12:26;11.80;99.90
5041;DHT22;2539;52.568;13.364;2024-02-26T13:15:00;11.70;99.90
5041;DHT22;2539;52.568;13.364;2024-02-26T13:17:27;11.80;99.90
5041;DHT22;2539;52.568;13.364;2024-02-26T13:19:54;11.90;99.90
5041;DHT22;2539;52.568;13.364;2024-02-26T13:22:21;12.00;99.90
5041;DHT22;2539;52.568;13.364;2024-02-26T13:24:56;12.00;99.90
5041;DHT22;2539;52.568;13.364;2024-02-26T13:27:23;12.00;99.90
5041;DHT22;2539;52.568;13.364;2024-02-26T13:32:28;12.20;99.90
5041;DHT22;2539;52.568;13.364;2024-02-26T13:35:08;12.10;99.90
5041;DHT22;2539;52.568;13.364;2024-02-26T13:37:35;12.20;99.90
5041;DHT22;2539;52.568;13.364;2024-02-26T13:40:09;12.20;99.90
5041;DHT22;2539;52.568;13.364;2024-02-26T13:42:37;12.10;99.90
5041;DHT22;2539;52.568;13.364;2024-02-26T13:45:04;12.10;99.90
5041;DHT22;2539;52.568;13.364;2024-02-26T13:47:34;12.10;99.90
5041;DHT22;2539;52.568;13.364;2024-02-26T13:50:01;12.00;99.90
5041;DHT22;2539;52.568;13.364;2024-02-26T13:52:27;12.00;99.90
5041;DHT22;2539;52.568;13.364;2024-02-26T13:54:54;12.00;99.90
5041;DHT22;2539;52.568;13.364;2024-02-26T13:57:20;11.90;99.90
5041;DHT22;2539;52.568;13.364;2024-02-26T13:59:46;11.80;99.90
5041;DHT22;2539;52.568;13.364;2024-02-26T14:02:13;11.80;99.90
5041;DHT22;2539;52.568;13.364;2024-02-26T14:04:40;11.80;99.90
5041;DHT22;2539;52.568;13.364;2024-02-26T14:07:07;11.80;99.90
5041;DHT22;2539;52.568;13.364;2024-02-26T14:09:33;11.80;99.90
5041;DHT22;2539;52.568;13.364;2024-02-26T14:12:00;11.80;99.90
5041;DHT22;2539;52.568;13.364;2024-02-26T14:14:28;11.80;99.90
5041;DHT22;2539;52.568;13.364;2024-02-26T14:16:54;11.80;99.90
5041;DHT22;2539;52.568;13.364;2024-02-26T14:19:20;11.80;99.90
5041;DHT22;2539;52.568;13.364;2024-02-26T14:21:46;11.90;99.90
5041;DHT22;2539;52.568;13.364;2024-02-26T14:24:13;11.80;99.90
5041;DHT22;2539;52.568;13.364;2024-02-26T14:26:40;11.80;99.90
5041;DHT22;2539;52.568;13.364;2024-02-26T14:29:06;11.80;99.90
5041;DHT22;2539;52.568;13.364;2024-02-26T14:31:33;11.70;99.90
5041;DHT22;2539;52.568;13.364;2024-02-26T14:33:59;11.70;99.90
5041;DHT22;2539;52.568;13.364;2024-02-26T14:36:26;11.60;99.90
5041;DHT22;2539;52.568;13.364;2024-02-26T14:38:55;11.60;99.90
5041;DHT22;2539;52.568;13.364;2024-02-26T14:41:21;11.50;99.90
5041;DHT22;2539;52.568;13.364;2024-02-26T14:43:47;11.40;99.90
5041;DHT22;2539;52.568;13.364;2024-02-26T14:46:13;11.40;99.90
5041;DHT22;2539;52.568;13.364;2024-02-26T14:48:40;11.30;99.90
5041;DHT22;2539;52.568;13.364;2024-02-26T14:51:06;11.30;99.90
5041;DHT22;2539;52.568;13.364;2024-02-26T14:53:32;11.30;99.90
5041;DHT22;2539;52.568;13.364;2024-02-26T14:56:17;11.30;99.90
5041;DHT22;2539;52.568;13.364;2024-02-26T14:59:01;11.30;99.90
5041;DHT22;2539;52.568;13.364;2024-02-26T15:01:27;11.20;99.90
5041;DHT22;2539;52.568;13.364;2024-02-26T15:03:53;11.20;99.90
5041;DHT22;2539;52.568;13.364;2024-02-26T15:06:19;11.20;99.90
5041;DHT22;2539;52.568;13.364;2024-02-26T15:08:47;11.10;99.90
5041;DHT22;2539;52.568;13.364;2024-02-26T15:11:12;11.10;99.90
5041;DHT22;2539;52.568;13.364;2024-02-26T15:13:38;11.00;99.90
5041;DHT22;2539;52.568;13.364;2024-02-26T15:16:05;11.00;99.90
5041;DHT22;2539;52.568;13.364;2024-02-26T15:18:31;10.90;99.90
5041;DHT22;2539;52.568;13.364;2024-02-26T15:20:57;11.00;99.90
5041;DHT22;2539;52.568;13.364;2024-02-26T15:23:24;11.00;99.90
5041;DHT22;2539;52.568;13.364;2024-02-26T15:25:50;10.90;99.90
5041;DHT22;2539;52.568;13.364;2024-02-26T15:28:16;10.90;99.90
5041;DHT22;2539;52.568;13.364;2024-02-26T15:30:43;10.90;99.90
5041;DHT22;2539;52.568;13.364;2024-02-26T15:33:09;10.80;99.90
5041;DHT22;2539;52.568;13.364;2024-02-26T15:35:36;10.80;99.90
5041;DHT22;2539;52.568;13.364;2024-02-26T15:38:03;10.70;99.90
5041;DHT22;2539;52.568;13.364;2024-02-26T15:40:30;10.70;99.90
5041;DHT22;2539;52.568;13.364;2024-02-26T15:42:56;10.70;99.90
5041;DHT22;2539;52.568;13.364;2024-02-26T15:45:23;10.70;99.90
5041;DHT22;2539;52.568;13.364;2024-02-26T15:47:51;10.60;99.90
5041;DHT22;2539;52.568;13.364;2024-02-26T15:50:18;10.60;99.90
5041;DHT22;2539;52.568;13.364;2024-02-26T15:52:44;10.50;99.90
5041;DHT22;2539;52.568;13.364;2024-02-26T15:55:14;10.50;99.90
5041;DHT22;2539;52.568;13.364;2024-02-26T15:57:41;10.50;99.90
5041;DHT22;2539;52.568;13.364;2024-02-26T16:00:09;10.40;99.90
5041;DHT22;2539;52.568;13.364;2024-02-26T16:02:37;10.40;99.90
5041;DHT22;2539;52.568;13.364;2024-02-26T16:05:08;10.40;99.90
5041;DHT22;2539;52.568;13.364;2024-02-26T16:07:39;10.30;99.90
5041;DHT22;2539;52.568;13.364;2024-02-26T16:10:07;10.30;99.90